Time;durP1;ratioP1;P1;durP2;ratioP2;P2;SDS_P1;SDS_P2;PMS_P1;PMS_P2;Temp;Humidity;BMP_temperature;BMP_pressure;BME280_temperature;BME280_humidity;BME280_pressure;Samples;Min_cycle;Max_cycle;Signal;HPM_P1;HPM_P2
2022/07/01 00:00:44;;;;;;;;;;;;;;;13.38;95.82;101433.53;5087117;28;19919;-56
2022/07/01 00:03:09;;;;;;;;;;;;;;;13.37;95.69;101434.53;5089358;28;20009;-55
2022/07/01 00:05:34;;;;;;;;;;;;;;;13.33;95.77;101454.56;5089101;28;19916;-52
2022/07/01 00:07:59;;;;;;;;;;;;;;;13.33;95.66;101466.06;5087254;28;20049;-53
2022/07/01 00:10:25;;;;;;;;;;;;;;;13.30;95.59;101471.75;5086082;28;20155;-53
2022/07/01 00:12:50;;;;;;;;;;;;;;;13.29;95.79;101467.41;5087328;28;20050;-55
2022/07/01 00:15:15;;;;;;;;;;;;;;;13.28;95.55;101465.72;5085029;28;19957;-54
2022/07/01 00:17:40;;;;;;;;;;;;;;;13.25;95.80;101450.09;5086667;28;19911;-53
2022/07/01 00:20:07;;;;;;;;;;;;;;;13.21;95.44;101446.09;5087266;28;19912;-55
2022/07/01 00:22:33;;;;;;;;;;;;;;;13.17;95.68;101446.59;5087753;28;19916;-52
2022/07/01 00:24:58;;;;;;;;;;;;;;;13.12;95.90;101447.13;5088353;28;19912;-54
2022/07/01 00:27:24;;;;;;;;;;;;;;;13.09;95.86;101452.78;5087493;28;19922;-55
2022/07/01 00:29:49;;;;;;;;;;;;;;;13.07;95.88;101453.97;5085447;28;19923;-56
2022/07/01 00:32:14;;;;;;;;;;;;;;;13.02;95.68;101449.16;5082638;28;19916;-54
2022/07/01 00:34:39;;;;;;;;;;;;;;;12.97;95.99;101449.66;5085607;28;20006;-53
2022/07/01 00:37:05;;;;;;;;;;;;;;;12.93;96.11;101447.50;5087595;28;19919;-55
2022/07/01 00:39:34;;;;;;;;;;;;;;;12.86;96.21;101446.53;5086058;28;19964;-53
2022/07/01 00:42:03;;;;;;;;;;;;;;;12.82;95.97;101434.53;5078881;28;19916;-56
2022/07/01 00:44:28;;;;;;;;;;;;;;;12.78;96.47;101428.72;5081432;28;19920;-55
2022/07/01 00:46:53;;;;;;;;;;;;;;;12.75;96.47;101430.91;5081960;28;20282;-55
2022/07/01 00:49:19;;;;;;;;;;;;;;;12.73;96.55;101436.41;5082884;28;19927;-54
2022/07/01 00:51:44;;;;;;;;;;;;;;;12.70;96.59;101432.22;5082754;28;20377;-54
2022/07/01 00:54:10;;;;;;;;;;;;;;;12.69;96.74;101429.72;5079568;28;20448;-52
2022/07/01 00:56:35;;;;;;;;;;;;;;;12.70;97.01;101434.06;5086246;28;21204;-53
2022/07/01 00:59:00;;;;;;;;;;;;;;;12.69;97.62;101435.06;5082230;28;19947;-52
2022/07/01 01:01:26;;;;;;;;;;;;;;;12.69;97.46;101435.88;5081561;28;19923;-55
2022/07/01 01:03:51;;;;;;;;;;;;;;;12.71;97.67;101444.53;5078296;28;20436;-56
2022/07/01 01:06:16;;;;;;;;;;;;;;;12.70;97.43;101437.53;5082369;28;19919;-55
2022/07/01 01:08:42;;;;;;;;;;;;;;;12.70;97.84;101448.22;5083346;28;19923;-54
2022/07/01 01:11:07;;;;;;;;;;;;;;;12.70;97.67;101450.88;5080484;28;19916;-54
2022/07/01 01:13:32;;;;;;;;;;;;;;;12.70;97.78;101453.53;5061119;28;19961;-53
2022/07/01 01:15:57;;;;;;;;;;;;;;;12.70;97.60;101460.69;5082853;28;20292;-55
2022/07/01 01:18:22;;;;;;;;;;;;;;;12.67;98.02;101463.72;5083153;28;19931;-52
2022/07/01 01:20:48;;;;;;;;;;;;;;;12.65;98.07;101455.06;5081411;28;19944;-55
2022/07/01 01:23:13;;;;;;;;;;;;;;;12.65;98.32;101477.19;5082540;28;19966;-55
2022/07/01 01:25:38;;;;;;;;;;;;;;;12.66;98.15;101484.19;5081045;28;19916;-52
2022/07/01 01:28:03;;;;;;;;;;;;;;;12.68;98.17;101486.69;5084026;28;20399;-56
2022/07/01 01:30:28;;;;;;;;;;;;;;;12.69;98.16;101483.84;5080968;28;20313;-54
2022/07/01 01:32:54;;;;;;;;;;;;;;;12.70;98.41;101492.69;5082324;28;19995;-54
2022/07/01 01:35:19;;;;;;;;;;;;;;;12.71;98.30;101497.00;5079891;28;19935;-55
2022/07/01 01:37:45;;;;;;;;;;;;;;;12.73;98.39;101488.88;5080462;28;20359;-54
2022/07/01 01:40:13;;;;;;;;;;;;;;;12.76;98.68;101488.53;5078518;28;19908;-55
2022/07/01 01:42:38;;;;;;;;;;;;;;;12.75;98.38;101482.38;5078653;28;19913;-53
2022/07/01 01:45:04;;;;;;;;;;;;;;;12.76;98.19;101478.72;5079158;28;19947;-55
2022/07/01 01:47:29;;;;;;;;;;;;;;;12.78;98.32;101478.53;5082601;28;20360;-55
2022/07/01 01:49:54;;;;;;;;;;;;;;;12.79;98.52;101481.03;5080776;28;20011;-53
2022/07/01 01:52:19;;;;;;;;;;;;;;;12.81;98.67;101488.84;5080325;28;19927;-56
2022/07/01 01:54:44;;;;;;;;;;;;;;;12.83;98.62;101479.69;5081569;28;20030;-54
2022/07/01 01:57:10;;;;;;;;;;;;;;;12.84;98.35;101485.84;5078777;28;19918;-54
2022/07/01 01:59:35;;;;;;;;;;;;;;;12.83;98.46;101481.53;5083250;28;19949;-54
2022/07/01 02:02:00;;;;;;;;;;;;;;;12.83;98.48;101473.53;5078956;28;19956;-53
2022/07/01 02:04:25;;;;;;;;;;;;;;;12.84;98.31;101483.19;5081335;28;19912;-52
2022/07/01 02:06:51;;;;;;;;;;;;;;;12.85;98.67;101482.19;5081237;28;20294;-56
2022/07/01 02:09:16;;;;;;;;;;;;;;;12.84;98.27;101483.19;5079675;28;19919;-52
2022/07/01 02:11:41;;;;;;;;;;;;;;;12.84;98.29;101485.84;5080822;28;19981;-54
2022/07/01 02:14:07;;;;;;;;;;;;;;;12.84;98.37;101497.34;5078908;28;19915;-54
2022/07/01 02:16:32;;;;;;;;;;;;;;;12.85;98.11;101498.16;5077576;28;20402;-55
2022/07/01 02:18:57;;;;;;;;;;;;;;;12.86;98.27;101502.50;5079786;28;19939;-54
2022/07/01 02:21:22;;;;;;;;;;;;;;;12.87;98.18;101501.50;5078720;28;19916;-56
2022/07/01 02:23:47;;;;;;;;;;;;;;;12.86;97.98;101515.84;5081624;28;19915;-53
2022/07/01 02:26:13;;;;;;;;;;;;;;;12.82;98.33;101520.66;5082546;28;19916;-52
2022/07/01 02:28:38;;;;;;;;;;;;;;;12.84;98.16;101520.50;5081658;28;19976;-55
2022/07/01 02:31:03;;;;;;;;;;;;;;;12.84;98.12;101528.50;5075460;28;19916;-55
2022/07/01 02:33:29;;;;;;;;;;;;;;;12.82;98.31;101535.84;5079470;28;19916;-55
2022/07/01 02:35:54;;;;;;;;;;;;;;;12.82;98.22;101535.84;5078818;28;19922;-56
2022/07/01 02:38:19;;;;;;;;;;;;;;;12.82;97.93;101517.16;5079599;28;19912;-55
2022/07/01 02:40:45;;;;;;;;;;;;;;;12.82;98.28;101494.00;5079114;28;19923;-56
2022/07/01 02:43:10;;;;;;;;;;;;;;;12.82;97.76;101474.53;5080531;28;19912;-53
2022/07/01 02:45:35;;;;;;;;;;;;;;;12.80;97.86;101488.03;5077154;28;19931;-55
2022/07/01 02:48:01;;;;;;;;;;;;;;;12.79;97.49;101496.19;5081215;28;19911;-54
2022/07/01 02:50:27;;;;;;;;;;;;;;;12.79;97.91;101488.19;5080124;28;19927;-54
2022/07/01 02:52:52;;;;;;;;;;;;;;;12.80;97.78;101489.84;5082180;28;19949;-56
2022/07/01 02:55:17;;;;;;;;;;;;;;;12.80;98.33;101506.69;5077814;28;19995;-52
2022/07/01 02:57:43;;;;;;;;;;;;;;;12.82;98.01;101510.00;5076965;28;19924;-54
2022/07/01 03:00:10;;;;;;;;;;;;;;;12.82;98.07;101503.84;5077594;28;19994;-54
2022/07/01 03:02:35;;;;;;;;;;;;;;;12.79;97.73;101518.34;5080129;28;19912;-55
2022/07/01 03:05:01;;;;;;;;;;;;;;;12.78;98.19;101522.00;5080774;28;19919;-54
2022/07/01 03:07:26;;;;;;;;;;;;;;;12.78;97.97;101519.34;5077757;28;20338;-55
2022/07/01 03:10:07;;;;;;;;;;;;;;;12.78;97.99;101514.00;5075955;28;19924;-56
2022/07/01 03:12:35;;;;;;;;;;;;;;;12.78;97.89;101519.34;5078417;28;19919;-56
2022/07/01 03:15:02;;;;;;;;;;;;;;;12.78;97.97;101516.69;5080811;28;19957;-55
2022/07/01 03:17:28;;;;;;;;;;;;;;;12.78;98.02;101521.19;5078905;28;20168;-54
2022/07/01 03:19:53;;;;;;;;;;;;;;;12.77;98.33;101523.00;5079569;28;19928;-56
2022/07/01 03:22:22;;;;;;;;;;;;;;;12.78;98.14;101534.50;5079747;28;19912;-55
2022/07/01 03:24:48;;;;;;;;;;;;;;;12.77;98.48;101533.66;5082963;28;19919;-56
2022/07/01 03:27:14;;;;;;;;;;;;;;;12.79;98.29;101531.66;5083364;28;20299;-54
2022/07/01 03:29:39;;;;;;;;;;;;;;;12.82;98.38;101509.19;5086781;28;19920;-53
2022/07/01 03:32:04;;;;;;;;;;;;;;;12.88;97.92;101524.50;5080864;28;19923;-56
2022/07/01 03:34:29;;;;;;;;;;;;;;;12.90;98.16;101515.31;5083034;28;20305;-55
2022/07/01 03:36:55;;;;;;;;;;;;;;;12.87;98.23;101523.66;5083139;28;19912;-55
2022/07/01 03:39:20;;;;;;;;;;;;;;;12.85;98.20;101531.00;5081605;28;19964;-56
2022/07/01 03:41:45;;;;;;;;;;;;;;;12.84;98.08;101541.81;5086163;28;19958;-55
2022/07/01 03:44:10;;;;;;;;;;;;;;;12.84;97.78;101547.16;5079934;28;20011;-54
2022/07/01 03:46:37;;;;;;;;;;;;;;;12.84;98.26;101557.81;5082578;28;19962;-55
2022/07/01 03:49:02;;;;;;;;;;;;;;;12.86;98.08;101553.16;5078919;28;19920;-55
2022/07/01 03:51:28;;;;;;;;;;;;;;;12.85;98.29;101556.81;5085509;28;19938;-55
2022/07/01 03:56:36;;;;;;;;;;;;;;;12.84;98.30;101565.81;5082736;28;20004;-55
2022/07/01 03:59:02;;;;;;;;;;;;;;;12.82;98.16;101568.66;5082214;28;20365;-55
2022/07/01 04:01:27;;;;;;;;;;;;;;;12.83;98.04;101582.81;5078566;28;20082;-55
2022/07/01 04:03:52;;;;;;;;;;;;;;;12.81;98.16;101579.47;5083435;28;19916;-52
2022/07/01 04:06:18;;;;;;;;;;;;;;;12.79;98.09;101576.97;5081721;28;19916;-52
2022/07/01 04:08:43;;;;;;;;;;;;;;;12.80;98.22;101583.97;5082983;28;19920;-56
2022/07/01 04:11:09;;;;;;;;;;;;;;;12.76;97.82;101577.31;5079699;28;19933;-53
2022/07/01 04:13:37;;;;;;;;;;;;;;;12.75;97.78;101581.00;5082896;28;19916;-52
2022/07/01 04:16:03;;;;;;;;;;;;;;;12.72;97.74;101586.63;5082604;28;19912;-55
2022/07/01 04:18:29;;;;;;;;;;;;;;;12.70;97.86;101589.44;5079763;28;19927;-55
2022/07/01 04:23:37;;;;;;;;;;;;;;;12.64;97.68;101587.47;5081692;28;19919;-54
2022/07/01 04:26:03;;;;;;;;;;;;;;;12.63;97.85;101596.44;5082916;28;19916;-53
2022/07/01 04:28:28;;;;;;;;;;;;;;;12.65;97.65;101591.78;5080950;28;20345;-52
2022/07/01 04:30:53;;;;;;;;;;;;;;;12.67;97.43;101594.28;5047021;28;1016089;-57
2022/07/01 04:33:18;;;;;;;;;;;;;;;12.67;97.80;101584.47;5081900;28;19919;-54
2022/07/01 04:35:43;;;;;;;;;;;;;;;12.66;97.49;101587.28;5078701;28;20015;-53
2022/07/01 04:38:08;;;;;;;;;;;;;;;12.65;97.61;101583.78;5081452;28;19912;-55
2022/07/01 04:40:34;;;;;;;;;;;;;;;12.63;97.09;101585.78;5081109;28;19951;-54
2022/07/01 04:42:59;;;;;;;;;;;;;;;12.60;97.05;101588.78;5081921;28;20358;-55
2022/07/01 04:45:24;;;;;;;;;;;;;;;12.59;97.05;101594.28;5082747;28;19920;-55
2022/07/01 04:47:49;;;;;;;;;;;;;;;12.58;97.51;101597.94;5083263;28;19915;-54
2022/07/01 04:50:15;;;;;;;;;;;;;;;12.60;97.24;101601.28;5082561;28;20243;-53
2022/07/01 04:52:40;;;;;;;;;;;;;;;12.61;97.41;101603.78;5076924;28;20325;-54
2022/07/01 04:55:06;;;;;;;;;;;;;;;12.64;97.32;101603.44;5082209;28;20321;-54
2022/07/01 04:57:31;;;;;;;;;;;;;;;12.66;97.41;101606.78;5082679;28;19919;-52
2022/07/01 04:59:56;;;;;;;;;;;;;;;12.67;97.41;101595.13;5084488;28;19908;-55
2022/07/01 05:02:21;;;;;;;;;;;;;;;12.64;96.96;101598.13;5078378;28;19923;-54
2022/07/01 05:04:47;;;;;;;;;;;;;;;12.64;97.42;101591.97;5080141;28;20379;-53
2022/07/01 05:07:27;;;;;;;;;;;;;;;12.63;96.92;101595.63;5081292;28;19931;-52
2022/07/01 05:09:53;;;;;;;;;;;;;;;12.64;97.19;101597.28;5081583;28;20110;-55
2022/07/01 05:12:18;;;;;;;;;;;;;;;12.63;97.02;101590.28;5082867;28;19923;-55
2022/07/01 05:14:43;;;;;;;;;;;;;;;12.64;97.39;101592.78;5089575;28;19915;-56
2022/07/01 05:17:09;;;;;;;;;;;;;;;12.65;97.21;101601.63;5088109;28;19999;-54
2022/07/01 05:22:18;;;;;;;;;;;;;;;12.67;97.58;101608.44;5086242;28;19962;-55
2022/07/01 05:24:43;;;;;;;;;;;;;;;12.67;97.19;101597.78;5081108;28;19911;-55
2022/07/01 05:27:08;;;;;;;;;;;;;;;12.67;97.06;101603.13;5085049;28;19930;-55
2022/07/01 05:29:33;;;;;;;;;;;;;;;12.69;97.00;101605.63;5085320;28;19916;-55
2022/07/01 05:31:58;;;;;;;;;;;;;;;12.70;96.73;101596.63;5078380;28;19951;-55
2022/07/01 05:34:24;;;;;;;;;;;;;;;12.71;97.27;101592.94;5083348;28;20118;-54
2022/07/01 05:36:49;;;;;;;;;;;;;;;12.74;97.28;101597.97;5085377;28;19916;-55
2022/07/01 05:39:15;;;;;;;;;;;;;;;12.74;96.81;101597.16;5078019;28;20023;-54
2022/07/01 05:41:40;;;;;;;;;;;;;;;12.70;96.76;101608.09;5081016;28;19916;-55
2022/07/01 05:44:05;;;;;;;;;;;;;;;12.71;96.86;101606.28;5078955;28;20167;-54
2022/07/01 05:46:31;;;;;;;;;;;;;;;12.72;96.64;101594.63;5085225;28;20506;-52
2022/07/01 05:48:56;;;;;;;;;;;;;;;12.75;97.08;101594.31;5081954;28;19965;-54
2022/07/01 05:51:21;;;;;;;;;;;;;;;12.75;97.11;101602.31;5081572;28;20359;-53
2022/07/01 05:53:47;;;;;;;;;;;;;;;12.75;96.83;101604.97;5083503;28;19993;-55
2022/07/01 05:56:12;;;;;;;;;;;;;;;12.76;96.45;101600.47;5083530;28;19916;-55
2022/07/01 05:58:37;;;;;;;;;;;;;;;12.77;96.41;101612.81;5084327;28;20287;-54
2022/07/01 06:01:03;;;;;;;;;;;;;;;12.74;96.51;101605.97;5080684;28;19931;-54
2022/07/01 06:03:28;;;;;;;;;;;;;;;12.75;96.42;101609.47;5086694;28;19934;-55
2022/07/01 06:05:53;;;;;;;;;;;;;;;12.78;96.50;101609.97;5082609;28;20003;-57
2022/07/01 06:08:19;;;;;;;;;;;;;;;12.86;97.11;101611.78;5086754;28;20006;-52
2022/07/01 06:10:44;;;;;;;;;;;;;;;12.95;97.16;101602.78;5084573;28;19965;-52
2022/07/01 06:13:10;;;;;;;;;;;;;;;13.06;97.05;101609.63;5081167;28;19939;-54
2022/07/01 06:15:35;;;;;;;;;;;;;;;13.17;97.21;101612.81;5084059;28;19926;-54
2022/07/01 06:18:00;;;;;;;;;;;;;;;13.21;96.39;101606.13;5082130;28;19920;-53
2022/07/01 06:20:26;;;;;;;;;;;;;;;13.24;96.47;101605.78;5078625;28;19923;-55
2022/07/01 06:22:51;;;;;;;;;;;;;;;13.27;96.02;101602.78;5080847;28;19916;-55
2022/07/01 06:25:16;;;;;;;;;;;;;;;13.29;95.73;101608.78;5082048;28;19916;-54
2022/07/01 06:27:42;;;;;;;;;;;;;;;13.34;95.36;101602.97;5082325;28;19941;-55
2022/07/01 06:30:08;;;;;;;;;;;;;;;13.37;95.14;101599.94;5086747;28;20006;-54
2022/07/01 06:32:34;;;;;;;;;;;;;;;13.37;94.65;101594.63;5086613;28;20383;-54
2022/07/01 06:34:59;;;;;;;;;;;;;;;13.37;94.19;101586.59;5088678;28;19912;-52
2022/07/01 06:37:24;;;;;;;;;;;;;;;13.40;93.89;101588.09;5084852;28;19916;-52
2022/07/01 06:39:49;;;;;;;;;;;;;;;13.45;93.63;101593.75;5081664;28;19912;-52
2022/07/01 06:42:15;;;;;;;;;;;;;;;13.48;93.17;101598.75;5078418;28;19964;-54
2022/07/01 06:44:40;;;;;;;;;;;;;;;13.52;92.57;101598.22;5083518;28;19938;-54
2022/07/01 06:47:05;;;;;;;;;;;;;;;13.60;92.53;101586.72;5080260;28;20322;-53
2022/07/01 06:49:31;;;;;;;;;;;;;;;13.62;92.15;101598.88;5080649;28;19955;-53
2022/07/01 06:51:56;;;;;;;;;;;;;;;13.75;91.99;101601.00;5080984;28;19912;-55
2022/07/01 06:54:21;;;;;;;;;;;;;;;13.79;91.52;101591.63;5085198;28;20375;-55
2022/07/01 06:56:46;;;;;;;;;;;;;;;13.87;91.70;101596.09;5088136;28;19912;-53
2022/07/01 06:59:12;;;;;;;;;;;;;;;13.89;91.38;101597.63;5075357;28;20307;-54
2022/07/01 07:01:37;;;;;;;;;;;;;;;13.92;90.80;101599.09;5077961;28;19943;-54
2022/07/01 07:04:02;;;;;;;;;;;;;;;13.91;90.30;101614.28;5074932;28;19916;-54
2022/07/01 07:06:28;;;;;;;;;;;;;;;13.97;89.80;101603.91;5084866;28;19912;-53
2022/07/01 07:08:54;;;;;;;;;;;;;;;14.03;89.86;101609.38;5083112;28;19968;-54
2022/07/01 07:11:19;;;;;;;;;;;;;;;14.05;89.13;101612.72;5083118;28;20349;-55
2022/07/01 07:13:45;;;;;;;;;;;;;;;14.16;89.30;101625.66;5076513;28;19930;-56
2022/07/01 07:16:10;;;;;;;;;;;;;;;14.24;88.68;101627.50;5084614;28;20154;-53
2022/07/01 07:18:36;;;;;;;;;;;;;;;14.37;89.06;101634.91;5078746;28;19920;-52
2022/07/01 07:21:03;;;;;;;;;;;;;;;14.50;89.03;101644.06;5083129;28;19997;-52
2022/07/01 07:23:28;;;;;;;;;;;;;;;14.56;88.40;101639.84;5079392;28;20387;-55
2022/07/01 07:25:53;;;;;;;;;;;;;;;14.57;87.82;101650.38;5081277;28;19954;-56
2022/07/01 07:28:18;;;;;;;;;;;;;;;14.46;86.04;101637.41;5084490;28;19916;-53
2022/07/01 07:30:43;;;;;;;;;;;;;;;14.37;85.67;101642.94;5080387;28;20299;-52
2022/07/01 07:33:09;;;;;;;;;;;;;;;14.39;85.75;101639.06;5079655;28;20015;-52
2022/07/01 07:35:34;;;;;;;;;;;;;;;14.49;86.24;101636.22;5076360;28;19926;-53
2022/07/01 07:37:59;;;;;;;;;;;;;;;14.60;86.55;101645.69;5083161;28;19927;-55
2022/07/01 07:40:25;;;;;;;;;;;;;;;14.69;86.29;101639.25;5084737;28;20259;-56
2022/07/01 07:42:50;;;;;;;;;;;;;;;14.79;85.01;101645.22;5084051;28;20000;-55
2022/07/01 07:45:16;;;;;;;;;;;;;;;14.82;84.30;101660.91;5087741;28;19908;-54
2022/07/01 07:47:42;;;;;;;;;;;;;;;14.82;83.24;101655.56;5086456;28;19912;-52
2022/07/01 07:50:08;;;;;;;;;;;;;;;14.85;82.44;101652.53;5086698;28;19916;-52
2022/07/01 07:52:33;;;;;;;;;;;;;;;14.83;82.02;101657.22;5085971;28;20536;-52
2022/07/01 07:54:59;;;;;;;;;;;;;;;14.85;81.42;101663.22;5087645;28;19947;-54
2022/07/01 07:57:24;;;;;;;;;;;;;;;14.92;81.53;101661.47;5084937;28;19958;-55
2022/07/01 07:59:49;;;;;;;;;;;;;;;15.01;80.95;101659.56;5084859;28;20371;-53
2022/07/01 08:02:14;;;;;;;;;;;;;;;15.09;80.80;101668.38;5086072;28;19965;-55
2022/07/01 08:04:39;;;;;;;;;;;;;;;15.16;81.01;101672.00;5084763;28;19920;-54
2022/07/01 08:07:04;;;;;;;;;;;;;;;15.30;81.03;101674.88;5087725;28;19931;-52
2022/07/01 08:09:34;;;;;;;;;;;;;;;15.36;80.47;101669.66;5086346;28;19993;-52
2022/07/01 08:11:59;;;;;;;;;;;;;;;15.49;80.86;101674.38;5086298;28;19914;-55
2022/07/01 08:14:24;;;;;;;;;;;;;;;15.62;79.91;101679.97;5089959;28;19927;-53
2022/07/01 08:16:49;;;;;;;;;;;;;;;15.67;78.17;101682.94;5090034;28;20318;-55
2022/07/01 08:19:14;;;;;;;;;;;;;;;15.73;77.01;101674.16;5090397;28;19981;-52
2022/07/01 08:21:40;;;;;;;;;;;;;;;15.87;77.19;101680.50;5087134;28;19938;-55
2022/07/01 08:24:05;;;;;;;;;;;;;;;16.02;76.01;101681.34;5089424;28;19916;-53
2022/07/01 08:26:30;;;;;;;;;;;;;;;16.08;74.87;101675.25;5090643;28;19912;-53
2022/07/01 08:28:55;;;;;;;;;;;;;;;16.10;74.06;101685.78;5087384;28;19915;-55
2022/07/01 08:31:20;;;;;;;;;;;;;;;16.17;73.50;101694.72;5088425;28;20159;-52
2022/07/01 08:33:46;;;;;;;;;;;;;;;16.19;72.33;101692.72;5090052;28;19973;-54
2022/07/01 08:36:13;;;;;;;;;;;;;;;16.25;71.34;101701.88;5086963;28;19959;-55
2022/07/01 08:38:38;;;;;;;;;;;;;;;16.36;71.56;101709.41;5091006;28;19958;-55
2022/07/01 08:41:04;;;;;;;;;;;;;;;16.41;70.91;101709.69;5088974;28;19916;-53
2022/07/01 08:43:29;;;;;;;;;;;;;;;16.53;71.09;101708.19;5089604;28;20355;-53
2022/07/01 08:45:55;;;;;;;;;;;;;;;16.63;70.20;101710.56;5090011;28;20359;-55
2022/07/01 08:48:20;;;;;;;;;;;;;;;16.75;70.91;101717.13;5088799;28;20341;-54
2022/07/01 08:50:45;;;;;;;;;;;;;;;16.89;69.35;101710.88;5090238;28;20003;-53
2022/07/01 08:53:11;;;;;;;;;;;;;;;16.80;66.99;101716.56;5089899;28;19930;-54
2022/07/01 08:56:40;;;;;;;;;;;;;;;16.79;67.14;101725.66;5088703;28;19999;-56
2022/07/01 08:58:22;;;;;;;;;;;;;;;16.86;67.41;101724.69;5089367;28;20333;-52
2022/07/01 09:00:48;;;;;;;;;;;;;;;16.93;68.67;101725.59;5089589;28;19908;-56
2022/07/01 09:03:13;;;;;;;;;;;;;;;17.07;68.05;101733.78;5088571;28;19916;-54
2022/07/01 09:05:38;;;;;;;;;;;;;;;17.17;68.81;101736.97;5089632;28;20367;-56
2022/07/01 09:08:06;;;;;;;;;;;;;;;17.27;68.45;101730.25;5091107;28;20016;-54
2022/07/01 09:10:34;;;;;;;;;;;;;;;17.36;66.88;101725.59;5089142;28;19965;-52
2022/07/01 09:13:07;;;;;;;;;;;;;;;17.41;66.71;101723.16;5089529;28;19955;-55
2022/07/01 09:15:32;;;;;;;;;;;;;;;17.56;66.93;101728.41;5088587;28;19916;-54
2022/07/01 09:18:10;;;;;;;;;;;;;;;17.63;66.56;101724.75;5090394;28;19908;-54
2022/07/01 09:20:36;;;;;;;;;;;;;;;17.68;66.14;101728.75;5089051;28;20328;-56
2022/07/01 09:23:03;;;;;;;;;;;;;;;17.74;65.45;101725.28;5088788;28;20390;-54
2022/07/01 09:25:33;;;;;;;;;;;;;;;17.72;64.99;101719.28;5088151;28;20298;-53
2022/07/01 09:28:05;;;;;;;;;;;;;;;17.66;64.42;101723.56;5088267;28;20147;-55
2022/07/01 09:30:30;;;;;;;;;;;;;;;17.64;65.18;101725.59;5090697;28;20282;-54
2022/07/01 09:33:09;;;;;;;;;;;;;;;17.61;63.94;101728.66;5086606;28;20389;-53
2022/07/01 09:35:35;;;;;;;;;;;;;;;17.65;64.32;101720.03;5089303;28;19912;-55
2022/07/01 09:38:01;;;;;;;;;;;;;;;17.64;62.18;101729.13;5088831;28;19908;-54
2022/07/01 09:40:44;;;;;;;;;;;;;;;17.57;62.17;101730.91;5090194;28;19908;-53
2022/07/01 09:43:13;;;;;;;;;;;;;;;17.53;61.84;101726.13;5086492;28;20470;-55
2022/07/01 09:45:47;;;;;;;;;;;;;;;17.51;62.19;101737.06;5084728;28;19923;-53
2022/07/01 09:48:13;;;;;;;;;;;;;;;17.57;62.03;101741.66;5087954;28;19955;-52
2022/07/01 09:50:38;;;;;;;;;;;;;;;17.65;62.41;101733.47;5088993;28;20405;-55
2022/07/01 09:53:03;;;;;;;;;;;;;;;17.84;63.44;101734.66;5089581;28;20383;-55
2022/07/01 09:55:29;;;;;;;;;;;;;;;18.04;63.12;101748.22;5088975;28;20374;-56
2022/07/01 09:57:54;;;;;;;;;;;;;;;18.08;60.58;101740.59;5087334;28;19927;-55
2022/07/01 10:00:20;;;;;;;;;;;;;;;18.12;60.96;101739.16;5089902;28;20295;-53
2022/07/01 10:02:46;;;;;;;;;;;;;;;18.13;59.07;101747.03;5088251;28;19977;-52
2022/07/01 10:05:15;;;;;;;;;;;;;;;18.10;58.78;101747.44;5088878;28;20000;-52
2022/07/01 10:07:59;;;;;;;;;;;;;;;18.14;59.03;101747.84;5087866;28;20268;-56
2022/07/01 10:10:33;;;;;;;;;;;;;;;18.32;58.82;101756.25;5088802;28;19915;-55
2022/07/01 10:12:59;;;;;;;;;;;;;;;18.41;59.48;101759.59;5087587;28;19911;-56
2022/07/01 10:15:25;;;;;;;;;;;;;;;18.38;58.37;101762.69;5087401;28;19920;-56
2022/07/01 10:17:52;;;;;;;;;;;;;;;18.35;58.81;101760.41;5085462;28;19919;-56
2022/07/01 10:20:19;;;;;;;;;;;;;;;18.42;58.75;101766.63;5088001;28;19951;-55
2022/07/01 10:22:45;;;;;;;;;;;;;;;18.50;60.36;101758.38;5083812;28;19920;-55
2022/07/01 10:25:30;;;;;;;;;;;;;;;18.58;58.42;101772.50;5087600;28;19915;-56
2022/07/01 10:28:25;;;;;;;;;;;;;;;18.43;59.27;101779.88;5089730;28;20001;-56
2022/07/01 10:31:01;;;;;;;;;;;;;;;18.66;59.17;101778.78;5064564;28;20653;-55
2022/07/01 10:33:31;;;;;;;;;;;;;;;18.66;59.04;101784.16;5080104;28;19911;-52
2022/07/01 10:36:03;;;;;;;;;;;;;;;18.45;58.33;101785.06;5075208;28;19958;-55
2022/07/01 10:38:28;;;;;;;;;;;;;;;18.31;58.63;101783.34;5078649;28;19959;-56
2022/07/01 10:40:53;;;;;;;;;;;;;;;18.32;58.86;101795.75;5079397;28;20042;-56
2022/07/01 10:43:31;;;;;;;;;;;;;;;18.34;58.08;101788.31;5076512;28;20314;-56
2022/07/01 10:45:56;;;;;;;;;;;;;;;18.20;58.44;101785.53;5081806;28;19919;-56
2022/07/01 10:48:25;;;;;;;;;;;;;;;18.09;57.52;101778.03;5079674;28;20275;-54
2022/07/01 10:50:50;;;;;;;;;;;;;;;18.00;58.48;101778.38;5081966;28;19920;-55
2022/07/01 10:53:16;;;;;;;;;;;;;;;18.13;58.75;101783.84;5079492;28;19924;-56
2022/07/01 10:55:45;;;;;;;;;;;;;;;18.30;58.75;101773.59;5088248;28;19908;-57
2022/07/01 10:58:10;;;;;;;;;;;;;;;18.46;57.92;101784.03;5087010;28;20473;-54
2022/07/01 11:00:36;;;;;;;;;;;;;;;18.33;57.39;101778.59;5084155;28;20019;-55
2022/07/01 11:03:05;;;;;;;;;;;;;;;18.25;58.14;101777.72;5077603;28;20295;-55
2022/07/01 11:05:30;;;;;;;;;;;;;;;18.19;57.51;101774.97;5079757;28;19947;-55
2022/07/01 11:07:56;;;;;;;;;;;;;;;18.28;57.27;101781.88;5078790;28;20441;-55
2022/07/01 11:10:21;;;;;;;;;;;;;;;18.37;57.28;101767.22;5086009;28;19916;-53
2022/07/01 11:12:49;;;;;;;;;;;;;;;18.32;56.86;101783.13;5087319;28;20363;-55
2022/07/01 11:15:14;;;;;;;;;;;;;;;18.17;57.17;101763.59;5086580;28;20106;-56
2022/07/01 11:17:44;;;;;;;;;;;;;;;18.04;57.24;101774.28;5084976;28;20010;-55
2022/07/01 11:20:09;;;;;;;;;;;;;;;18.18;58.93;101776.00;5086518;28;19911;-54
2022/07/01 11:22:35;;;;;;;;;;;;;;;18.47;58.51;101772.22;5085802;28;19919;-54
2022/07/01 11:25:01;;;;;;;;;;;;;;;18.60;58.22;101758.84;5086472;28;19908;-55
2022/07/01 11:27:27;;;;;;;;;;;;;;;18.78;57.43;101758.31;5066826;28;20010;-56
2022/07/01 11:29:52;;;;;;;;;;;;;;;18.87;55.55;101757.94;5083796;28;20049;-56
2022/07/01 11:32:37;;;;;;;;;;;;;;;18.97;55.27;101754.03;5085087;28;20236;-53
2022/07/01 11:39:21;;;;;;;;;;;;;;;19.10;55.96;101760.28;5084837;28;19908;-55
2022/07/01 11:40:33;;;;;;;;;;;;;;;19.16;57.46;101751.38;5086335;28;19995;-55
2022/07/01 11:42:58;;;;;;;;;;;;;;;19.42;58.44;101753.28;5085966;28;20002;-54
2022/07/01 11:45:24;;;;;;;;;;;;;;;19.49;55.57;101772.97;5087052;28;19911;-56
2022/07/01 11:47:49;;;;;;;;;;;;;;;19.37;54.03;101763.00;5085351;28;19938;-56
2022/07/01 11:50:15;;;;;;;;;;;;;;;19.42;54.81;101752.44;5087314;28;20379;-56
2022/07/01 11:52:40;;;;;;;;;;;;;;;19.53;55.14;101749.16;5081916;28;19978;-55
2022/07/01 11:55:06;;;;;;;;;;;;;;;19.60;54.76;101754.53;5092810;28;19912;-53
2022/07/01 11:57:32;;;;;;;;;;;;;;;19.63;53.90;101767.59;5086504;28;19923;-55
2022/07/01 12:00:07;;;;;;;;;;;;;;;19.48;54.25;101752.44;5083573;28;20658;-54
2022/07/01 12:02:32;;;;;;;;;;;;;;;19.33;53.57;101748.28;5083466;28;19943;-53
2022/07/01 12:04:59;;;;;;;;;;;;;;;19.42;54.74;101742.50;5087130;28;20528;-56
2022/07/01 12:07:25;;;;;;;;;;;;;;;19.60;55.37;101751.84;5083971;28;19920;-55
2022/07/01 12:09:51;;;;;;;;;;;;;;;19.82;55.40;101750.59;5084696;28;20345;-54
2022/07/01 12:12:17;;;;;;;;;;;;;;;19.80;54.45;101748.09;5085635;28;19916;-56
2022/07/01 12:14:48;;;;;;;;;;;;;;;19.75;54.92;101747.91;5087342;28;20304;-54
2022/07/01 12:17:15;;;;;;;;;;;;;;;19.93;55.01;101757.19;5088963;28;19912;-55
2022/07/01 12:19:41;;;;;;;;;;;;;;;19.98;54.23;101750.16;5088325;28;20023;-56
2022/07/01 12:22:20;;;;;;;;;;;;;;;20.01;54.28;101754.31;5081166;28;20396;-56
2022/07/01 12:24:46;;;;;;;;;;;;;;;19.81;53.13;101757.03;5085566;28;19908;-54
2022/07/01 12:27:11;;;;;;;;;;;;;;;19.62;53.93;101757.84;5087752;28;20440;-56
2022/07/01 12:29:36;;;;;;;;;;;;;;;19.67;53.94;101750.81;5089634;28;20371;-56
2022/07/01 12:32:05;;;;;;;;;;;;;;;19.89;54.66;101759.50;5084490;28;19955;-57
2022/07/01 12:34:42;;;;;;;;;;;;;;;19.90;53.72;101757.63;5084253;28;19922;-57
2022/07/01 12:37:13;;;;;;;;;;;;;;;19.73;53.37;101759.94;5085603;28;19919;-56
2022/07/01 12:39:56;;;;;;;;;;;;;;;19.57;54.08;101760.34;5083982;28;19930;-53
2022/07/01 12:42:27;;;;;;;;;;;;;;;19.54;53.88;101763.47;5081989;28;19962;-53